sensor_id;sensor_type;location;lat;lon;timestamp;temperature;humidity
53208;DHT22;39093;52.788;6.940;2023-02-03T00:01:03;8.00;99.90
53208;DHT22;39093;52.788;6.940;2023-02-03T00:03:30;8.00;99.90
53208;DHT22;39093;52.788;6.940;2023-02-03T00:05:59;8.00;99.90
53208;DHT22;39093;52.788;6.940;2023-02-03T00:08:27;8.10;99.90
53208;DHT22;39093;52.788;6.940;2023-02-03T00:10:53;8.10;99.90
53208;DHT22;39093;52.788;6.940;2023-02-03T00:13:23;8.10;99.90
53208;DHT22;39093;52.788;6.940;2023-02-03T00:15:51;8.10;99.90
53208;DHT22;39093;52.788;6.940;2023-02-03T00:18:18;8.10;99.90
53208;DHT22;39093;52.788;6.940;2023-02-03T00:20:45;8.20;99.90
53208;DHT22;39093;52.788;6.940;2023-02-03T00:23:12;8.10;99.90
53208;DHT22;39093;52.788;6.940;2023-02-03T00:25:39;8.10;99.90
53208;DHT22;39093;52.788;6.940;2023-02-03T00:28:06;8.10;99.90
53208;DHT22;39093;52.788;6.940;2023-02-03T00:30:34;8.20;99.90
53208;DHT22;39093;52.788;6.940;2023-02-03T00:33:02;8.20;99.90
53208;DHT22;39093;52.788;6.940;2023-02-03T00:35:29;8.20;99.90
53208;DHT22;39093;52.788;6.940;2023-02-03T00:37:57;8.20;99.90
53208;DHT22;39093;52.788;6.940;2023-02-03T00:40:25;8.10;99.90
53208;DHT22;39093;52.788;6.940;2023-02-03T00:42:52;8.20;99.90
53208;DHT22;39093;52.788;6.940;2023-02-03T00:45:20;8.20;99.90
53208;DHT22;39093;52.788;6.940;2023-02-03T00:47:47;8.20;99.90
53208;DHT22;39093;52.788;6.940;2023-02-03T00:50:14;8.20;99.90
53208;DHT22;39093;52.788;6.940;2023-02-03T00:52:41;8.20;99.90
53208;DHT22;39093;52.788;6.940;2023-02-03T00:55:08;8.20;99.90
53208;DHT22;39093;52.788;6.940;2023-02-03T00:57:35;8.20;99.90
53208;DHT22;39093;52.788;6.940;2023-02-03T01:00:03;8.20;99.90
53208;DHT22;39093;52.788;6.940;2023-02-03T01:02:30;8.20;99.90
53208;DHT22;39093;52.788;6.940;2023-02-03T01:04:56;8.20;99.90
53208;DHT22;39093;52.788;6.940;2023-02-03T01:07:23;8.20;99.90
53208;DHT22;39093;52.788;6.940;2023-02-03T01:09:50;8.20;99.90
53208;DHT22;39093;52.788;6.940;2023-02-03T01:12:17;8.20;99.90
53208;DHT22;39093;52.788;6.940;2023-02-03T01:14:44;8.20;99.90
53208;DHT22;39093;52.788;6.940;2023-02-03T01:17:11;8.20;99.90
53208;DHT22;39093;52.788;6.940;2023-02-03T01:19:37;8.30;99.90
53208;DHT22;39093;52.788;6.940;2023-02-03T01:22:04;8.20;99.90
53208;DHT22;39093;52.788;6.940;2023-02-03T01:24:31;8.30;99.90
53208;DHT22;39093;52.788;6.940;2023-02-03T01:26:58;8.30;99.90
53208;DHT22;39093;52.788;6.940;2023-02-03T01:29:25;8.30;99.90
53208;DHT22;39093;52.788;6.940;2023-02-03T01:31:52;8.30;99.90
53208;DHT22;39093;52.788;6.940;2023-02-03T01:34:19;8.20;99.90
53208;DHT22;39093;52.788;6.940;2023-02-03T01:36:46;8.20;99.90
53208;DHT22;39093;52.788;6.940;2023-02-03T01:39:13;8.30;99.90
53208;DHT22;39093;52.788;6.940;2023-02-03T01:41:40;8.30;99.90
53208;DHT22;39093;52.788;6.940;2023-02-03T01:46:59;8.30;99.90
53208;DHT22;39093;52.788;6.940;2023-02-03T01:49:32;8.30;99.90
53208;DHT22;39093;52.788;6.940;2023-02-03T01:52:02;8.30;99.90
53208;DHT22;39093;52.788;6.940;2023-02-03T01:54:32;8.20;99.90
53208;DHT22;39093;52.788;6.940;2023-02-03T01:57:06;8.30;99.90
53208;DHT22;39093;52.788;6.940;2023-02-03T01:59:37;8.30;99.90
53208;DHT22;39093;52.788;6.940;2023-02-03T02:02:05;8.20;99.90
53208;DHT22;39093;52.788;6.940;2023-02-03T02:07:19;8.20;99.90
53208;DHT22;39093;52.788;6.940;2023-02-03T02:09:47;8.20;99.90
53208;DHT22;39093;52.788;6.940;2023-02-03T02:12:14;8.20;99.90
53208;DHT22;39093;52.788;6.940;2023-02-03T02:14:42;8.20;99.90
53208;DHT22;39093;52.788;6.940;2023-02-03T02:20:23;8.20;99.90
53208;DHT22;39093;52.788;6.940;2023-02-03T02:34:55;8.20;99.90
53208;DHT22;39093;52.788;6.940;2023-02-03T02:37:40;8.20;99.90
53208;DHT22;39093;52.788;6.940;2023-02-03T02:43:01;8.30;99.90
53208;DHT22;39093;52.788;6.940;2023-02-03T02:45:47;8.30;99.90
53208;DHT22;39093;52.788;6.940;2023-02-03T02:48:38;8.30;99.90
53208;DHT22;39093;52.788;6.940;2023-02-03T02:51:10;8.20;99.90
53208;DHT22;39093;52.788;6.940;2023-02-03T02:54:02;8.30;99.90
53208;DHT22;39093;52.788;6.940;2023-02-03T02:56:29;8.30;99.90
53208;DHT22;39093;52.788;6.940;2023-02-03T02:58:58;8.30;99.90
53208;DHT22;39093;52.788;6.940;2023-02-03T03:01:27;8.30;99.90
53208;DHT22;39093;52.788;6.940;2023-02-03T03:03:54;8.30;99.90
53208;DHT22;39093;52.788;6.940;2023-02-03T03:06:28;8.30;99.90
53208;DHT22;39093;52.788;6.940;2023-02-03T03:09:12;8.40;99.90
53208;DHT22;39093;52.788;6.940;2023-02-03T03:11:46;8.40;99.90
53208;DHT22;39093;52.788;6.940;2023-02-03T03:14:15;8.30;99.90
53208;DHT22;39093;52.788;6.940;2023-02-03T03:16:49;8.40;99.90
53208;DHT22;39093;52.788;6.940;2023-02-03T03:19:23;8.40;99.90
53208;DHT22;39093;52.788;6.940;2023-02-03T03:21:57;8.50;99.90
53208;DHT22;39093;52.788;6.940;2023-02-03T03:24:31;8.50;99.90
53208;DHT22;39093;52.788;6.940;2023-02-03T03:27:04;8.50;99.90
53208;DHT22;39093;52.788;6.940;2023-02-03T03:29:38;8.50;99.90
53208;DHT22;39093;52.788;6.940;2023-02-03T03:32:07;8.40;99.90
53208;DHT22;39093;52.788;6.940;2023-02-03T03:34:35;8.40;99.90
53208;DHT22;39093;52.788;6.940;2023-02-03T03:37:15;8.40;99.90
53208;DHT22;39093;52.788;6.940;2023-02-03T03:39:55;8.30;99.90
53208;DHT22;39093;52.788;6.940;2023-02-03T03:48:07;8.40;99.90
53208;DHT22;39093;52.788;6.940;2023-02-03T03:50:46;8.40;99.90
53208;DHT22;39093;52.788;6.940;2023-02-03T03:53:16;8.40;99.90
53208;DHT22;39093;52.788;6.940;2023-02-03T03:55:47;8.60;99.90
53208;DHT22;39093;52.788;6.940;2023-02-03T03:58:22;8.40;99.90
53208;DHT22;39093;52.788;6.940;2023-02-03T04:00:53;8.40;99.90
53208;DHT22;39093;52.788;6.940;2023-02-03T04:03:31;8.40;99.90
53208;DHT22;39093;52.788;6.940;2023-02-03T04:05:59;8.40;99.90
53208;DHT22;39093;52.788;6.940;2023-02-03T04:08:25;8.40;99.90
53208;DHT22;39093;52.788;6.940;2023-02-03T04:10:52;8.40;99.90
53208;DHT22;39093;52.788;6.940;2023-02-03T04:13:19;8.40;99.90
53208;DHT22;39093;52.788;6.940;2023-02-03T04:15:46;8.40;99.90
53208;DHT22;39093;52.788;6.940;2023-02-03T04:18:14;8.40;99.90
53208;DHT22;39093;52.788;6.940;2023-02-03T04:20:44;8.40;99.90
53208;DHT22;39093;52.788;6.940;2023-02-03T04:23:11;8.40;99.90
53208;DHT22;39093;52.788;6.940;2023-02-03T04:25:38;8.40;99.90
53208;DHT22;39093;52.788;6.940;2023-02-03T04:28:04;8.60;99.90
53208;DHT22;39093;52.788;6.940;2023-02-03T04:30:32;8.50;99.90
53208;DHT22;39093;52.788;6.940;2023-02-03T04:32:59;8.50;99.90
53208;DHT22;39093;52.788;6.940;2023-02-03T04:35:26;8.50;99.90
53208;DHT22;39093;52.788;6.940;2023-02-03T04:37:53;8.50;99.90
53208;DHT22;39093;52.788;6.940;2023-02-03T04:40:19;8.50;99.90
53208;DHT22;39093;52.788;6.940;2023-02-03T04:42:46;8.50;99.90
53208;DHT22;39093;52.788;6.940;2023-02-03T04:45:13;8.50;99.90
53208;DHT22;39093;52.788;6.940;2023-02-03T04:47:40;8.50;99.90
53208;DHT22;39093;52.788;6.940;2023-02-03T04:50:07;8.50;99.90
53208;DHT22;39093;52.788;6.940;2023-02-03T04:52:34;8.50;99.90
53208;DHT22;39093;52.788;6.940;2023-02-03T04:55:01;8.50;99.90
53208;DHT22;39093;52.788;6.940;2023-02-03T04:57:29;8.40;99.90
53208;DHT22;39093;52.788;6.940;2023-02-03T04:59:56;8.40;99.90
53208;DHT22;39093;52.788;6.940;2023-02-03T05:02:23;8.50;99.90
53208;DHT22;39093;52.788;6.940;2023-02-03T05:04:50;8.30;99.90
53208;DHT22;39093;52.788;6.940;2023-02-03T05:07:17;8.50;99.90
53208;DHT22;39093;52.788;6.940;2023-02-03T05:09:43;8.50;99.90
53208;DHT22;39093;52.788;6.940;2023-02-03T05:12:10;8.40;99.90
53208;DHT22;39093;52.788;6.940;2023-02-03T05:14:37;8.40;99.90
53208;DHT22;39093;52.788;6.940;2023-02-03T05:17:04;8.50;99.90
53208;DHT22;39093;52.788;6.940;2023-02-03T05:19:31;8.50;99.90
53208;DHT22;39093;52.788;6.940;2023-02-03T05:21:58;8.60;99.90
53208;DHT22;39093;52.788;6.940;2023-02-03T05:24:24;8.50;99.90
53208;DHT22;39093;52.788;6.940;2023-02-03T05:26:51;8.40;99.90
53208;DHT22;39093;52.788;6.940;2023-02-03T05:29:18;8.50;99.90
53208;DHT22;39093;52.788;6.940;2023-02-03T05:31:45;8.50;99.90
53208;DHT22;39093;52.788;6.940;2023-02-03T05:34:12;8.40;99.90
53208;DHT22;39093;52.788;6.940;2023-02-03T05:36:38;8.50;99.90
53208;DHT22;39093;52.788;6.940;2023-02-03T05:39:05;8.50;99.90
53208;DHT22;39093;52.788;6.940;2023-02-03T05:41:32;8.40;99.90
53208;DHT22;39093;52.788;6.940;2023-02-03T05:44:22;8.50;99.90
53208;DHT22;39093;52.788;6.940;2023-02-03T05:46:51;8.50;99.90
53208;DHT22;39093;52.788;6.940;2023-02-03T05:49:19;8.50;99.90
53208;DHT22;39093;52.788;6.940;2023-02-03T05:51:46;8.50;99.90
53208;DHT22;39093;52.788;6.940;2023-02-03T05:54:14;8.60;99.90
53208;DHT22;39093;52.788;6.940;2023-02-03T05:56:41;8.60;99.90
53208;DHT22;39093;52.788;6.940;2023-02-03T05:59:08;8.60;99.90
53208;DHT22;39093;52.788;6.940;2023-02-03T06:01:35;8.50;99.90
53208;DHT22;39093;52.788;6.940;2023-02-03T06:04:03;8.50;99.90
53208;DHT22;39093;52.788;6.940;2023-02-03T06:06:30;8.50;99.90
53208;DHT22;39093;52.788;6.940;2023-02-03T06:09:02;8.50;99.90
53208;DHT22;39093;52.788;6.940;2023-02-03T06:11:29;8.50;99.90
53208;DHT22;39093;52.788;6.940;2023-02-03T06:13:57;8.60;99.90
53208;DHT22;39093;52.788;6.940;2023-02-03T06:16:27;8.50;99.90
53208;DHT22;39093;52.788;6.940;2023-02-03T06:18:55;8.50;99.90
53208;DHT22;39093;52.788;6.940;2023-02-03T06:21:26;8.50;99.90
53208;DHT22;39093;52.788;6.940;2023-02-03T06:23:53;8.50;99.90
53208;DHT22;39093;52.788;6.940;2023-02-03T06:26:22;8.50;99.90
53208;DHT22;39093;52.788;6.940;2023-02-03T06:28:49;8.50;99.90
53208;DHT22;39093;52.788;6.940;2023-02-03T06:31:16;8.50;99.90
53208;DHT22;39093;52.788;6.940;2023-02-03T06:33:43;8.50;99.90
53208;DHT22;39093;52.788;6.940;2023-02-03T06:36:09;8.50;99.90
53208;DHT22;39093;52.788;6.940;2023-02-03T06:38:36;8.50;99.90
53208;DHT22;39093;52.788;6.940;2023-02-03T06:41:03;8.50;99.90
53208;DHT22;39093;52.788;6.940;2023-02-03T06:43:30;8.50;99.90
53208;DHT22;39093;52.788;6.940;2023-02-03T06:45:57;8.60;99.90
53208;DHT22;39093;52.788;6.940;2023-02-03T06:48:24;8.70;99.90
53208;DHT22;39093;52.788;6.940;2023-02-03T06:50:51;8.70;99.90
53208;DHT22;39093;52.788;6.940;2023-02-03T06:53:18;8.80;99.90
53208;DHT22;39093;52.788;6.940;2023-02-03T06:55:45;8.80;99.90
53208;DHT22;39093;52.788;6.940;2023-02-03T06:58:13;8.80;99.90
53208;DHT22;39093;52.788;6.940;2023-02-03T07:00:40;8.90;99.90
53208;DHT22;39093;52.788;6.940;2023-02-03T07:03:07;8.80;99.90
53208;DHT22;39093;52.788;6.940;2023-02-03T07:05:34;8.80;99.90
53208;DHT22;39093;52.788;6.940;2023-02-03T07:08:02;8.80;99.90
53208;DHT22;39093;52.788;6.940;2023-02-03T07:10:29;8.80;99.90
53208;DHT22;39093;52.788;6.940;2023-02-03T07:13:04;8.90;99.90
53208;DHT22;39093;52.788;6.940;2023-02-03T07:15:31;8.90;99.90
53208;DHT22;39093;52.788;6.940;2023-02-03T07:17:58;8.80;99.90
53208;DHT22;39093;52.788;6.940;2023-02-03T07:20:25;8.90;99.90
53208;DHT22;39093;52.788;6.940;2023-02-03T07:22:54;8.90;99.90
53208;DHT22;39093;52.788;6.940;2023-02-03T07:25:22;8.90;99.90
53208;DHT22;39093;52.788;6.940;2023-02-03T07:27:49;8.90;99.90
53208;DHT22;39093;52.788;6.940;2023-02-03T07:30:16;8.90;99.90
53208;DHT22;39093;52.788;6.940;2023-02-03T07:32:48;9.00;99.90
53208;DHT22;39093;52.788;6.940;2023-02-03T07:35:15;9.00;99.90
53208;DHT22;39093;52.788;6.940;2023-02-03T07:37:42;8.90;99.90
53208;DHT22;39093;52.788;6.940;2023-02-03T07:40:10;9.00;99.90
53208;DHT22;39093;52.788;6.940;2023-02-03T07:42:46;8.90;99.90
53208;DHT22;39093;52.788;6.940;2023-02-03T07:45:16;9.00;99.90
53208;DHT22;39093;52.788;6.940;2023-02-03T07:47:43;8.90;99.90
53208;DHT22;39093;52.788;6.940;2023-02-03T07:50:10;8.90;99.90
53208;DHT22;39093;52.788;6.940;2023-02-03T07:52:37;8.90;99.90
53208;DHT22;39093;52.788;6.940;2023-02-03T07:55:05;8.80;99.90
53208;DHT22;39093;52.788;6.940;2023-02-03T07:57:32;8.80;99.90
53208;DHT22;39093;52.788;6.940;2023-02-03T07:59:59;8.80;99.90
53208;DHT22;39093;52.788;6.940;2023-02-03T08:02:26;8.80;99.90
53208;DHT22;39093;52.788;6.940;2023-02-03T08:04:53;8.80;99.90
53208;DHT22;39093;52.788;6.940;2023-02-03T08:07:20;8.70;99.90
53208;DHT22;39093;52.788;6.940;2023-02-03T08:09:47;8.70;99.90
53208;DHT22;39093;52.788;6.940;2023-02-03T08:12:14;8.60;99.90
53208;DHT22;39093;52.788;6.940;2023-02-03T08:14:40;8.60;99.90
53208;DHT22;39093;52.788;6.940;2023-02-03T08:17:07;8.60;99.90
53208;DHT22;39093;52.788;6.940;2023-02-03T08:19:34;8.60;99.90
53208;DHT22;39093;52.788;6.940;2023-02-03T08:22:01;8.60;99.90
53208;DHT22;39093;52.788;6.940;2023-02-03T08:24:28;8.60;99.90
53208;DHT22;39093;52.788;6.940;2023-02-03T08:26:55;8.50;99.90
53208;DHT22;39093;52.788;6.940;2023-02-03T08:29:26;8.80;99.90
53208;DHT22;39093;52.788;6.940;2023-02-03T08:31:53;8.50;99.90
53208;DHT22;39093;52.788;6.940;2023-02-03T08:34:23;8.40;99.90
53208;DHT22;39093;52.788;6.940;2023-02-03T08:36:50;8.50;99.90
53208;DHT22;39093;52.788;6.940;2023-02-03T08:39:17;8.50;99.90
53208;DHT22;39093;52.788;6.940;2023-02-03T08:41:44;8.50;99.90
53208;DHT22;39093;52.788;6.940;2023-02-03T08:44:11;8.50;99.90
53208;DHT22;39093;52.788;6.940;2023-02-03T08:46:38;8.50;99.90
53208;DHT22;39093;52.788;6.940;2023-02-03T08:49:09;8.50;99.90
53208;DHT22;39093;52.788;6.940;2023-02-03T08:51:36;8.60;99.90
53208;DHT22;39093;52.788;6.940;2023-02-03T08:54:03;8.50;99.90
53208;DHT22;39093;52.788;6.940;2023-02-03T08:56:30;8.50;99.90
53208;DHT22;39093;52.788;6.940;2023-02-03T08:58:59;8.50;99.90
53208;DHT22;39093;52.788;6.940;2023-02-03T09:01:26;8.60;99.90
53208;DHT22;39093;52.788;6.940;2023-02-03T09:03:53;8.60;99.90
53208;DHT22;39093;52.788;6.940;2023-02-03T09:06:20;8.60;99.90
53208;DHT22;39093;52.788;6.940;2023-02-03T09:08:50;8.50;99.90
53208;DHT22;39093;52.788;6.940;2023-02-03T09:11:17;8.70;99.90
53208;DHT22;39093;52.788;6.940;2023-02-03T09:13:45;8.60;99.90
53208;DHT22;39093;52.788;6.940;2023-02-03T09:16:13;8.70;99.90
53208;DHT22;39093;52.788;6.940;2023-02-03T09:18:44;8.60;99.90
53208;DHT22;39093;52.788;6.940;2023-02-03T09:21:13;8.60;99.90
53208;DHT22;39093;52.788;6.940;2023-02-03T09:24:02;8.60;99.90
53208;DHT22;39093;52.788;6.940;2023-02-03T09:26:30;8.60;99.90
53208;DHT22;39093;52.788;6.940;2023-02-03T09:28:57;8.60;99.90
53208;DHT22;39093;52.788;6.940;2023-02-03T09:31:23;8.60;99.90
53208;DHT22;39093;52.788;6.940;2023-02-03T09:33:50;8.60;99.90
53208;DHT22;39093;52.788;6.940;2023-02-03T09:36:17;8.60;99.90
53208;DHT22;39093;52.788;6.940;2023-02-03T09:38:44;8.60;99.90
53208;DHT22;39093;52.788;6.940;2023-02-03T09:41:31;8.60;99.90
53208;DHT22;39093;52.788;6.940;2023-02-03T09:46:40;8.70;99.90
53208;DHT22;39093;52.788;6.940;2023-02-03T09:51:58;8.70;99.90
53208;DHT22;39093;52.788;6.940;2023-02-03T09:54:52;8.70;99.90
53208;DHT22;39093;52.788;6.940;2023-02-03T09:59:49;8.80;99.90
53208;DHT22;39093;52.788;6.940;2023-02-03T10:02:25;8.90;99.90
53208;DHT22;39093;52.788;6.940;2023-02-03T10:08:21;8.90;99.90
53208;DHT22;39093;52.788;6.940;2023-02-03T10:11:07;9.00;99.90
53208;DHT22;39093;52.788;6.940;2023-02-03T10:13:52;8.90;99.90
53208;DHT22;39093;52.788;6.940;2023-02-03T10:18:59;9.00;99.90
53208;DHT22;39093;52.788;6.940;2023-02-03T10:21:58;9.10;99.90
53208;DHT22;39093;52.788;6.940;2023-02-03T10:25:30;9.20;99.90
53208;DHT22;39093;52.788;6.940;2023-02-03T10:27:36;9.20;99.90
53208;DHT22;39093;52.788;6.940;2023-02-03T10:30:45;9.20;99.90
53208;DHT22;39093;52.788;6.940;2023-02-03T10:33:13;9.20;99.90
53208;DHT22;39093;52.788;6.940;2023-02-03T10:36:10;9.30;99.90
53208;DHT22;39093;52.788;6.940;2023-02-03T10:39:05;9.20;99.90
53208;DHT22;39093;52.788;6.940;2023-02-03T10:41:36;9.30;99.90
53208;DHT22;39093;52.788;6.940;2023-02-03T10:44:05;9.30;99.90
53208;DHT22;39093;52.788;6.940;2023-02-03T10:46:34;9.30;99.90
53208;DHT22;39093;52.788;6.940;2023-02-03T10:49:03;9.30;99.90
53208;DHT22;39093;52.788;6.940;2023-02-03T10:51:37;9.40;99.90
53208;DHT22;39093;52.788;6.940;2023-02-03T10:54:31;9.40;99.90
53208;DHT22;39093;52.788;6.940;2023-02-03T10:57:05;9.40;99.90
53208;DHT22;39093;52.788;6.940;2023-02-03T10:59:34;9.40;99.90
53208;DHT22;39093;52.788;6.940;2023-02-03T11:02:20;9.50;99.90
53208;DHT22;39093;52.788;6.940;2023-02-03T11:04:47;9.50;99.90
53208;DHT22;39093;52.788;6.940;2023-02-03T11:07:25;9.50;99.90
53208;DHT22;39093;52.788;6.940;2023-02-03T11:09:53;9.50;99.90
53208;DHT22;39093;52.788;6.940;2023-02-03T11:12:20;9.50;99.90
53208;DHT22;39093;52.788;6.940;2023-02-03T11:14:51;9.50;99.90
53208;DHT22;39093;52.788;6.940;2023-02-03T11:17:24;9.50;99.90
53208;DHT22;39093;52.788;6.940;2023-02-03T11:20:13;9.50;99.90
53208;DHT22;39093;52.788;6.940;2023-02-03T11:22:42;9.40;99.90
53208;DHT22;39093;52.788;6.940;2023-02-03T11:25:18;9.50;99.90
53208;DHT22;39093;52.788;6.940;2023-02-03T11:27:46;9.50;99.90
53208;DHT22;39093;52.788;6.940;2023-02-03T11:30:23;9.50;99.90
53208;DHT22;39093;52.788;6.940;2023-02-03T11:32:52;9.40;99.90
53208;DHT22;39093;52.788;6.940;2023-02-03T11:35:25;9.50;99.90
53208;DHT22;39093;52.788;6.940;2023-02-03T11:37:55;9.50;99.90
53208;DHT22;39093;52.788;6.940;2023-02-03T11:40:25;9.40;99.90
53208;DHT22;39093;52.788;6.940;2023-02-03T11:45:27;9.40;99.90
53208;DHT22;39093;52.788;6.940;2023-02-03T11:57:11;9.40;99.90
53208;DHT22;39093;52.788;6.940;2023-02-03T11:59:55;9.40;99.90
53208;DHT22;39093;52.788;6.940;2023-02-03T12:03:00;9.40;99.90
53208;DHT22;39093;52.788;6.940;2023-02-03T12:05:57;9.40;99.90
53208;DHT22;39093;52.788;6.940;2023-02-03T12:08:39;9.50;99.90
53208;DHT22;39093;52.788;6.940;2023-02-03T12:17:59;9.50;99.90
53208;DHT22;39093;52.788;6.940;2023-02-03T12:23:50;9.50;99.90
53208;DHT22;39093;52.788;6.940;2023-02-03T12:29:48;9.60;99.90
53208;DHT22;39093;52.788;6.940;2023-02-03T12:32:39;9.60;99.90
53208;DHT22;39093;52.788;6.940;2023-02-03T12:40:51;9.60;99.90
53208;DHT22;39093;52.788;6.940;2023-02-03T12:43:39;9.80;99.90
53208;DHT22;39093;52.788;6.940;2023-02-03T12:46:15;9.60;99.90
53208;DHT22;39093;52.788;6.940;2023-02-03T12:48:45;9.60;99.90
53208;DHT22;39093;52.788;6.940;2023-02-03T12:52:04;9.60;99.90
53208;DHT22;39093;52.788;6.940;2023-02-03T12:54:24;9.60;99.90
53208;DHT22;39093;52.788;6.940;2023-02-03T12:57:04;9.60;99.90
53208;DHT22;39093;52.788;6.940;2023-02-03T12:59:36;9.60;99.90
53208;DHT22;39093;52.788;6.940;2023-02-03T13:02:20;9.50;99.90
53208;DHT22;39093;52.788;6.940;2023-02-03T13:05:01;9.40;99.90
53208;DHT22;39093;52.788;6.940;2023-02-03T13:07:46;9.40;99.90
53208;DHT22;39093;52.788;6.940;2023-02-03T13:10:44;9.40;99.90
53208;DHT22;39093;52.788;6.940;2023-02-03T13:13:19;9.30;99.90
53208;DHT22;39093;52.788;6.940;2023-02-03T13:15:50;9.30;99.90
53208;DHT22;39093;52.788;6.940;2023-02-03T13:18:34;9.20;99.90
53208;DHT22;39093;52.788;6.940;2023-02-03T13:21:03;9.20;99.90
53208;DHT22;39093;52.788;6.940;2023-02-03T13:23:30;9.20;99.90
53208;DHT22;39093;52.788;6.940;2023-02-03T13:29:07;9.20;99.90
53208;DHT22;39093;52.788;6.940;2023-02-03T13:32:03;9.20;99.90
53208;DHT22;39093;52.788;6.940;2023-02-03T13:37:37;9.20;99.90
53208;DHT22;39093;52.788;6.940;2023-02-03T13:40:35;9.20;99.90
53208;DHT22;39093;52.788;6.940;2023-02-03T13:43:05;9.10;99.90
53208;DHT22;39093;52.788;6.940;2023-02-03T13:45:42;9.10;99.90
53208;DHT22;39093;52.788;6.940;2023-02-03T13:50:43;9.10;99.90
53208;DHT22;39093;52.788;6.940;2023-02-03T13:58:26;9.00;99.90
53208;DHT22;39093;52.788;6.940;2023-02-03T14:05:53;9.00;99.90
53208;DHT22;39093;52.788;6.940;2023-02-03T14:16:42;9.00;99.90
53208;DHT22;39093;52.788;6.940;2023-02-03T14:19:12;9.00;99.90
53208;DHT22;39093;52.788;6.940;2023-02-03T14:24:22;9.00;99.90
53208;DHT22;39093;52.788;6.940;2023-02-03T14:26:56;9.00;99.90
53208;DHT22;39093;52.788;6.940;2023-02-03T14:29:28;9.10;99.90
53208;DHT22;39093;52.788;6.940;2023-02-03T14:32:03;9.00;99.90
53208;DHT22;39093;52.788;6.940;2023-02-03T14:34:36;9.00;99.90
53208;DHT22;39093;52.788;6.940;2023-02-03T14:40:23;9.00;99.90
53208;DHT22;39093;52.788;6.940;2023-02-03T14:43:03;8.90;99.90
53208;DHT22;39093;52.788;6.940;2023-02-03T14:46:00;8.90;99.90
53208;DHT22;39093;52.788;6.940;2023-02-03T14:48:51;9.00;99.90
53208;DHT22;39093;52.788;6.940;2023-02-03T14:51:50;8.90;99.90
53208;DHT22;39093;52.788;6.940;2023-02-03T15:06:05;8.80;99.90
53208;DHT22;39093;52.788;6.940;2023-02-03T15:11:44;8.80;99.90
53208;DHT22;39093;52.788;6.940;2023-02-03T15:16:49;8.70;99.90
53208;DHT22;39093;52.788;6.940;2023-02-03T15:19:22;8.70;99.90
53208;DHT22;39093;52.788;6.940;2023-02-03T15:21:49;8.70;99.90
53208;DHT22;39093;52.788;6.940;2023-02-03T15:24:19;8.70;99.90
53208;DHT22;39093;52.788;6.940;2023-02-03T15:26:54;8.60;99.90
53208;DHT22;39093;52.788;6.940;2023-02-03T15:29:30;8.60;99.90
53208;DHT22;39093;52.788;6.940;2023-02-03T15:34:37;8.60;99.90
53208;DHT22;39093;52.788;6.940;2023-02-03T15:37:41;8.50;99.90
53208;DHT22;39093;52.788;6.940;2023-02-03T15:40:15;8.50;99.90
53208;DHT22;39093;52.788;6.940;2023-02-03T15:45:51;8.50;99.90
53208;DHT22;39093;52.788;6.940;2023-02-03T15:48:34;8.40;99.90
53208;DHT22;39093;52.788;6.940;2023-02-03T15:51:07;8.40;99.90
53208;DHT22;39093;52.788;6.940;2023-02-03T15:53:57;8.40;99.90
53208;DHT22;39093;52.788;6.940;2023-02-03T17:36:56;7.80;99.90
53208;DHT22;39093;52.788;6.940;2023-02-03T17:39:24;7.80;99.90
53208;DHT22;39093;52.788;6.940;2023-02-03T17:42:10;7.80;99.90
53208;DHT22;39093;52.788;6.940;2023-02-03T17:44:54;7.80;99.90
53208;DHT22;39093;52.788;6.940;2023-02-03T17:47:38;7.80;99.90
53208;DHT22;39093;52.788;6.940;2023-02-03T17:50:22;7.80;99.90
53208;DHT22;39093;52.788;6.940;2023-02-03T17:53:07;7.80;99.90
53208;DHT22;39093;52.788;6.940;2023-02-03T17:55:36;7.80;99.90
53208;DHT22;39093;52.788;6.940;2023-02-03T17:58:03;7.80;99.90
53208;DHT22;39093;52.788;6.940;2023-02-03T18:00:30;7.80;99.90
53208;DHT22;39093;52.788;6.940;2023-02-03T18:02:58;7.80;99.90
53208;DHT22;39093;52.788;6.940;2023-02-03T18:05:25;7.80;99.90
53208;DHT22;39093;52.788;6.940;2023-02-03T18:07:52;7.80;99.90
53208;DHT22;39093;52.788;6.940;2023-02-03T18:10:19;7.80;99.90
53208;DHT22;39093;52.788;6.940;2023-02-03T18:12:46;7.80;99.90
53208;DHT22;39093;52.788;6.940;2023-02-03T18:15:13;7.80;99.90
53208;DHT22;39093;52.788;6.940;2023-02-03T18:17:40;7.80;99.90
53208;DHT22;39093;52.788;6.940;2023-02-03T18:20:08;7.80;99.90
53208;DHT22;39093;52.788;6.940;2023-02-03T18:22:37;7.70;99.90
53208;DHT22;39093;52.788;6.940;2023-02-03T18:25:11;7.90;99.90
53208;DHT22;39093;52.788;6.940;2023-02-03T18:27:38;7.70;99.90
53208;DHT22;39093;52.788;6.940;2023-02-03T18:30:08;7.70;99.90
53208;DHT22;39093;52.788;6.940;2023-02-03T18:32:37;7.70;99.90
53208;DHT22;39093;52.788;6.940;2023-02-03T18:35:04;7.70;99.90
53208;DHT22;39093;52.788;6.940;2023-02-03T18:37:36;7.70;99.90
53208;DHT22;39093;52.788;6.940;2023-02-03T18:40:04;7.70;99.90
53208;DHT22;39093;52.788;6.940;2023-02-03T18:42:35;7.60;99.90
53208;DHT22;39093;52.788;6.940;2023-02-03T18:45:02;7.60;99.90
53208;DHT22;39093;52.788;6.940;2023-02-03T18:47:32;7.60;99.90
53208;DHT22;39093;52.788;6.940;2023-02-03T18:49:59;7.60;99.90
53208;DHT22;39093;52.788;6.940;2023-02-03T18:52:27;7.60;99.90
53208;DHT22;39093;52.788;6.940;2023-02-03T18:54:53;7.60;99.90
53208;DHT22;39093;52.788;6.940;2023-02-03T18:57:21;7.50;99.90
53208;DHT22;39093;52.788;6.940;2023-02-03T18:59:48;7.50;99.90
53208;DHT22;39093;52.788;6.940;2023-02-03T19:02:16;7.50;99.90
53208;DHT22;39093;52.788;6.940;2023-02-03T19:04:53;7.50;99.90
53208;DHT22;39093;52.788;6.940;2023-02-03T19:07:20;7.50;99.90
53208;DHT22;39093;52.788;6.940;2023-02-03T19:09:52;7.40;99.90
53208;DHT22;39093;52.788;6.940;2023-02-03T19:12:19;7.40;99.90
53208;DHT22;39093;52.788;6.940;2023-02-03T19:14:46;7.40;99.90
53208;DHT22;39093;52.788;6.940;2023-02-03T19:17:13;7.40;99.90
53208;DHT22;39093;52.788;6.940;2023-02-03T19:19:40;7.30;99.90
53208;DHT22;39093;52.788;6.940;2023-02-03T19:22:07;7.30;99.90
53208;DHT22;39093;52.788;6.940;2023-02-03T19:24:34;7.40;99.90
53208;DHT22;39093;52.788;6.940;2023-02-03T19:27:02;7.30;99.90
53208;DHT22;39093;52.788;6.940;2023-02-03T19:29:29;7.30;99.90
53208;DHT22;39093;52.788;6.940;2023-02-03T19:31:56;7.20;99.90
53208;DHT22;39093;52.788;6.940;2023-02-03T19:34:23;7.30;99.90
53208;DHT22;39093;52.788;6.940;2023-02-03T19:36:52;7.20;99.90
53208;DHT22;39093;52.788;6.940;2023-02-03T19:39:19;7.30;99.90
53208;DHT22;39093;52.788;6.940;2023-02-03T19:41:47;7.20;99.90
53208;DHT22;39093;52.788;6.940;2023-02-03T19:44:14;7.30;99.90
53208;DHT22;39093;52.788;6.940;2023-02-03T19:46:41;7.50;99.90
53208;DHT22;39093;52.788;6.940;2023-02-03T19:49:09;7.30;99.90
53208;DHT22;39093;52.788;6.940;2023-02-03T19:51:42;7.40;99.90
53208;DHT22;39093;52.788;6.940;2023-02-03T19:54:14;7.20;99.90
53208;DHT22;39093;52.788;6.940;2023-02-03T19:56:42;7.30;99.90
53208;DHT22;39093;52.788;6.940;2023-02-03T19:59:09;7.30;99.90
53208;DHT22;39093;52.788;6.940;2023-02-03T20:01:37;7.30;99.90